Preview of NWS' New Version of Forecast
This preview is not operational and should not be used for support decisions.

Terminal Aerodrome Forecast (TAF)

Issued by National Weather Service (NWS)

                            
000
FTUS42 KMFL 272035 AAA
TAFMIA
TAF AMD
KMIA 272035Z 2721/2824 17020G30KT P6SM VCSH SCT025 SCT060 BKN250
     FM280200 15010G20KT P6SM SHRA SCT020 BKN035 OVC045
     FM280500 16010KT P6SM SHRA SCT015 BKN030 OVC120
     FM281400 17015KT P6SM SHRA SCT015 BKN035
     FM281700 17020KT P6SM SHRA SCT015 BKN035=